sensor_id;sensor_type;location;lat;lon;timestamp;temperature;humidity
20364;DHT22;10340;53.664;9.908;2023-04-01T00:01:26;10.30;99.90
20364;DHT22;10340;53.664;9.908;2023-04-01T00:03:53;10.30;99.90
20364;DHT22;10340;53.664;9.908;2023-04-01T00:06:22;10.30;99.90
20364;DHT22;10340;53.664;9.908;2023-04-01T00:08:49;10.30;99.90
20364;DHT22;10340;53.664;9.908;2023-04-01T00:11:16;10.30;99.90
20364;DHT22;10340;53.664;9.908;2023-04-01T00:13:45;10.30;99.90
20364;DHT22;10340;53.664;9.908;2023-04-01T00:16:12;10.30;99.90
20364;DHT22;10340;53.664;9.908;2023-04-01T00:18:39;10.30;99.90
20364;DHT22;10340;53.664;9.908;2023-04-01T00:21:07;10.30;99.90
20364;DHT22;10340;53.664;9.908;2023-04-01T00:23:34;10.30;99.90
20364;DHT22;10340;53.664;9.908;2023-04-01T00:26:02;10.30;99.90
20364;DHT22;10340;53.664;9.908;2023-04-01T00:28:29;10.30;99.90
20364;DHT22;10340;53.664;9.908;2023-04-01T00:30:58;10.30;99.90
20364;DHT22;10340;53.664;9.908;2023-04-01T00:33:25;10.30;99.90
20364;DHT22;10340;53.664;9.908;2023-04-01T00:35:53;10.30;99.90
20364;DHT22;10340;53.664;9.908;2023-04-01T00:38:20;10.20;99.90
20364;DHT22;10340;53.664;9.908;2023-04-01T00:40:47;10.30;99.90
20364;DHT22;10340;53.664;9.908;2023-04-01T00:43:16;10.30;99.90
20364;DHT22;10340;53.664;9.908;2023-04-01T00:45:45;10.30;99.90
20364;DHT22;10340;53.664;9.908;2023-04-01T00:48:17;10.30;99.90
20364;DHT22;10340;53.664;9.908;2023-04-01T00:50:49;10.30;99.90
20364;DHT22;10340;53.664;9.908;2023-04-01T00:53:19;10.30;99.90
20364;DHT22;10340;53.664;9.908;2023-04-01T00:55:50;10.20;99.90
20364;DHT22;10340;53.664;9.908;2023-04-01T00:58:21;10.30;99.90
20364;DHT22;10340;53.664;9.908;2023-04-01T01:00:51;10.30;99.90
20364;DHT22;10340;53.664;9.908;2023-04-01T01:03:20;10.30;99.90
20364;DHT22;10340;53.664;9.908;2023-04-01T01:09:06;10.30;99.90
20364;DHT22;10340;53.664;9.908;2023-04-01T01:11:39;10.30;99.90
20364;DHT22;10340;53.664;9.908;2023-04-01T01:14:14;10.30;99.90
20364;DHT22;10340;53.664;9.908;2023-04-01T01:16:50;10.30;99.90
20364;DHT22;10340;53.664;9.908;2023-04-01T01:19:39;10.30;99.90
20364;DHT22;10340;53.664;9.908;2023-04-01T01:22:40;10.10;99.90
20364;DHT22;10340;53.664;9.908;2023-04-01T01:25:23;10.30;99.90
20364;DHT22;10340;53.664;9.908;2023-04-01T01:28:00;10.30;99.90
20364;DHT22;10340;53.664;9.908;2023-04-01T01:30:39;10.30;99.90
20364;DHT22;10340;53.664;9.908;2023-04-01T01:33:40;10.30;99.90
20364;DHT22;10340;53.664;9.908;2023-04-01T01:36:12;10.20;99.90
20364;DHT22;10340;53.664;9.908;2023-04-01T01:38:40;10.30;99.90
20364;DHT22;10340;53.664;9.908;2023-04-01T01:41:08;10.30;99.90
20364;DHT22;10340;53.664;9.908;2023-04-01T01:43:40;10.30;99.90
20364;DHT22;10340;53.664;9.908;2023-04-01T01:46:10;10.30;99.90
20364;DHT22;10340;53.664;9.908;2023-04-01T01:48:39;10.20;99.90
20364;DHT22;10340;53.664;9.908;2023-04-01T01:51:08;10.40;99.90
20364;DHT22;10340;53.664;9.908;2023-04-01T01:53:36;10.30;99.90
20364;DHT22;10340;53.664;9.908;2023-04-01T01:56:04;10.20;99.90
20364;DHT22;10340;53.664;9.908;2023-04-01T01:58:34;10.30;99.90
20364;DHT22;10340;53.664;9.908;2023-04-01T02:01:09;10.20;99.90
20364;DHT22;10340;53.664;9.908;2023-04-01T02:03:39;10.20;99.90
20364;DHT22;10340;53.664;9.908;2023-04-01T02:06:10;10.20;99.90
20364;DHT22;10340;53.664;9.908;2023-04-01T02:08:41;10.20;99.90
20364;DHT22;10340;53.664;9.908;2023-04-01T02:11:11;10.20;99.90
20364;DHT22;10340;53.664;9.908;2023-04-01T02:13:42;10.20;99.90
20364;DHT22;10340;53.664;9.908;2023-04-01T02:16:17;10.20;99.90
20364;DHT22;10340;53.664;9.908;2023-04-01T02:18:49;10.40;99.90
20364;DHT22;10340;53.664;9.908;2023-04-01T02:21:20;10.20;99.90
20364;DHT22;10340;53.664;9.908;2023-04-01T02:23:49;10.20;99.90
20364;DHT22;10340;53.664;9.908;2023-04-01T02:26:17;10.20;99.90
20364;DHT22;10340;53.664;9.908;2023-04-01T02:28:45;10.20;99.90
20364;DHT22;10340;53.664;9.908;2023-04-01T02:31:14;10.30;99.90
20364;DHT22;10340;53.664;9.908;2023-04-01T02:33:42;10.20;99.90
20364;DHT22;10340;53.664;9.908;2023-04-01T02:36:11;10.20;99.90
20364;DHT22;10340;53.664;9.908;2023-04-01T02:38:41;10.20;99.90
20364;DHT22;10340;53.664;9.908;2023-04-01T02:41:08;10.20;99.90
20364;DHT22;10340;53.664;9.908;2023-04-01T02:46:03;10.60;99.90
20364;DHT22;10340;53.664;9.908;2023-04-01T02:48:30;10.20;99.90
20364;DHT22;10340;53.664;9.908;2023-04-01T02:50:57;10.20;99.90
20364;DHT22;10340;53.664;9.908;2023-04-01T02:53:24;10.10;99.90
20364;DHT22;10340;53.664;9.908;2023-04-01T02:55:53;10.10;99.90
20364;DHT22;10340;53.664;9.908;2023-04-01T02:58:21;10.10;99.90
20364;DHT22;10340;53.664;9.908;2023-04-01T03:00:50;10.10;99.90
20364;DHT22;10340;53.664;9.908;2023-04-01T03:05:45;10.10;99.90
20364;DHT22;10340;53.664;9.908;2023-04-01T03:08:12;10.10;99.90
20364;DHT22;10340;53.664;9.908;2023-04-01T03:10:39;10.10;99.90
20364;DHT22;10340;53.664;9.908;2023-04-01T03:13:08;10.10;99.90
20364;DHT22;10340;53.664;9.908;2023-04-01T03:15:35;10.10;99.90
20364;DHT22;10340;53.664;9.908;2023-04-01T03:18:02;10.10;99.90
20364;DHT22;10340;53.664;9.908;2023-04-01T03:22:57;10.10;99.90
20364;DHT22;10340;53.664;9.908;2023-04-01T03:25:24;10.10;99.90
20364;DHT22;10340;53.664;9.908;2023-04-01T03:27:52;10.10;99.90
20364;DHT22;10340;53.664;9.908;2023-04-01T03:30:20;10.10;99.90
20364;DHT22;10340;53.664;9.908;2023-04-01T03:32:47;10.10;99.90
20364;DHT22;10340;53.664;9.908;2023-04-01T03:35:15;10.10;99.90
20364;DHT22;10340;53.664;9.908;2023-04-01T03:37:42;10.10;99.90
20364;DHT22;10340;53.664;9.908;2023-04-01T03:40:10;9.80;99.90
20364;DHT22;10340;53.664;9.908;2023-04-01T03:42:37;10.20;99.90
20364;DHT22;10340;53.664;9.908;2023-04-01T03:45:05;10.10;99.90
20364;DHT22;10340;53.664;9.908;2023-04-01T03:47:34;10.10;99.90
20364;DHT22;10340;53.664;9.908;2023-04-01T03:50:01;10.10;99.90
20364;DHT22;10340;53.664;9.908;2023-04-01T03:52:28;10.10;99.90
20364;DHT22;10340;53.664;9.908;2023-04-01T03:57:23;10.10;99.90
20364;DHT22;10340;53.664;9.908;2023-04-01T03:59:50;10.10;99.90
20364;DHT22;10340;53.664;9.908;2023-04-01T04:02:17;10.00;99.90
20364;DHT22;10340;53.664;9.908;2023-04-01T04:04:46;10.10;99.90
20364;DHT22;10340;53.664;9.908;2023-04-01T04:07:13;10.10;99.90
20364;DHT22;10340;53.664;9.908;2023-04-01T04:09:40;10.10;99.90
20364;DHT22;10340;53.664;9.908;2023-04-01T04:12:07;9.80;99.90
20364;DHT22;10340;53.664;9.908;2023-04-01T04:19:31;10.10;99.90
20364;DHT22;10340;53.664;9.908;2023-04-01T04:22:01;10.10;99.90
20364;DHT22;10340;53.664;9.908;2023-04-01T04:24:28;10.20;99.90
20364;DHT22;10340;53.664;9.908;2023-04-01T04:29:23;10.10;99.90
20364;DHT22;10340;53.664;9.908;2023-04-01T04:31:50;10.10;99.90
20364;DHT22;10340;53.664;9.908;2023-04-01T04:34:17;10.10;99.90
20364;DHT22;10340;53.664;9.908;2023-04-01T04:36:44;9.90;99.90
20364;DHT22;10340;53.664;9.908;2023-04-01T04:39:13;9.60;99.90
20364;DHT22;10340;53.664;9.908;2023-04-01T04:41:40;9.50;99.90
20364;DHT22;10340;53.664;9.908;2023-04-01T04:44:08;9.50;99.90
20364;DHT22;10340;53.664;9.908;2023-04-01T04:46:35;9.40;99.90
20364;DHT22;10340;53.664;9.908;2023-04-01T04:49:05;9.30;99.90
20364;DHT22;10340;53.664;9.908;2023-04-01T04:51:32;9.50;99.90
20364;DHT22;10340;53.664;9.908;2023-04-01T04:54:01;9.20;99.90
20364;DHT22;10340;53.664;9.908;2023-04-01T04:56:30;9.10;99.90
20364;DHT22;10340;53.664;9.908;2023-04-01T04:58:58;9.00;99.90
20364;DHT22;10340;53.664;9.908;2023-04-01T05:01:26;8.90;99.90
20364;DHT22;10340;53.664;9.908;2023-04-01T05:03:53;8.90;99.90
20364;DHT22;10340;53.664;9.908;2023-04-01T05:06:21;8.80;99.90
20364;DHT22;10340;53.664;9.908;2023-04-01T05:08:48;8.80;99.90
20364;DHT22;10340;53.664;9.908;2023-04-01T05:11:16;8.70;99.90
20364;DHT22;10340;53.664;9.908;2023-04-01T05:13:45;8.60;99.90
20364;DHT22;10340;53.664;9.908;2023-04-01T05:16:15;8.50;99.90
20364;DHT22;10340;53.664;9.908;2023-04-01T05:18:43;8.50;99.90
20364;DHT22;10340;53.664;9.908;2023-04-01T05:21:11;8.40;99.90
20364;DHT22;10340;53.664;9.908;2023-04-01T05:23:39;8.30;99.90
20364;DHT22;10340;53.664;9.908;2023-04-01T05:26:06;8.30;99.90
20364;DHT22;10340;53.664;9.908;2023-04-01T05:28:34;8.20;99.90
20364;DHT22;10340;53.664;9.908;2023-04-01T05:31:03;8.20;99.90
20364;DHT22;10340;53.664;9.908;2023-04-01T05:33:31;8.10;99.90
20364;DHT22;10340;53.664;9.908;2023-04-01T05:36:06;8.10;99.90
20364;DHT22;10340;53.664;9.908;2023-04-01T05:38:33;8.00;99.90
20364;DHT22;10340;53.664;9.908;2023-04-01T05:41:02;8.00;99.90
20364;DHT22;10340;53.664;9.908;2023-04-01T05:43:29;7.90;99.90
20364;DHT22;10340;53.664;9.908;2023-04-01T05:45:56;7.80;99.90
20364;DHT22;10340;53.664;9.908;2023-04-01T05:48:25;7.80;99.90
20364;DHT22;10340;53.664;9.908;2023-04-01T05:50:52;7.70;99.90
20364;DHT22;10340;53.664;9.908;2023-04-01T05:53:19;7.70;99.90
20364;DHT22;10340;53.664;9.908;2023-04-01T05:55:46;7.70;99.90
20364;DHT22;10340;53.664;9.908;2023-04-01T05:58:13;7.70;99.90
20364;DHT22;10340;53.664;9.908;2023-04-01T06:00:40;7.60;99.90
20364;DHT22;10340;53.664;9.908;2023-04-01T06:03:08;7.60;99.90
20364;DHT22;10340;53.664;9.908;2023-04-01T06:05:41;7.70;99.90
20364;DHT22;10340;53.664;9.908;2023-04-01T06:08:13;7.60;99.90
20364;DHT22;10340;53.664;9.908;2023-04-01T06:10:53;7.50;99.90
20364;DHT22;10340;53.664;9.908;2023-04-01T06:13:38;8.70;99.90
20364;DHT22;10340;53.664;9.908;2023-04-01T06:16:15;7.50;99.90
20364;DHT22;10340;53.664;9.908;2023-04-01T06:19:00;7.50;99.90
20364;DHT22;10340;53.664;9.908;2023-04-01T06:24:54;7.40;99.90
20364;DHT22;10340;53.664;9.908;2023-04-01T06:27:38;7.20;99.90
20364;DHT22;10340;53.664;9.908;2023-04-01T06:30:29;7.40;99.90
20364;DHT22;10340;53.664;9.908;2023-04-01T06:33:08;7.40;99.90
20364;DHT22;10340;53.664;9.908;2023-04-01T06:35:54;7.50;99.90
20364;DHT22;10340;53.664;9.908;2023-04-01T06:38:41;7.30;99.90
20364;DHT22;10340;53.664;9.908;2023-04-01T06:41:26;7.30;99.90
20364;DHT22;10340;53.664;9.908;2023-04-01T06:44:04;7.30;99.90
20364;DHT22;10340;53.664;9.908;2023-04-01T06:46:41;7.20;99.90
20364;DHT22;10340;53.664;9.908;2023-04-01T06:49:29;7.20;99.90
20364;DHT22;10340;53.664;9.908;2023-04-01T06:52:05;7.20;99.90
20364;DHT22;10340;53.664;9.908;2023-04-01T06:54:38;7.10;99.90
20364;DHT22;10340;53.664;9.908;2023-04-01T06:57:19;7.20;99.90
20364;DHT22;10340;53.664;9.908;2023-04-01T06:59:47;7.20;99.90
20364;DHT22;10340;53.664;9.908;2023-04-01T07:02:24;7.20;99.90
20364;DHT22;10340;53.664;9.908;2023-04-01T07:04:54;7.10;99.90
20364;DHT22;10340;53.664;9.908;2023-04-01T07:07:29;7.20;99.90
20364;DHT22;10340;53.664;9.908;2023-04-01T07:10:00;7.10;99.90
20364;DHT22;10340;53.664;9.908;2023-04-01T07:12:37;7.10;99.90
20364;DHT22;10340;53.664;9.908;2023-04-01T07:15:14;7.10;99.90
20364;DHT22;10340;53.664;9.908;2023-04-01T07:17:44;7.00;99.90
20364;DHT22;10340;53.664;9.908;2023-04-01T07:20:17;7.00;99.90
20364;DHT22;10340;53.664;9.908;2023-04-01T07:22:49;7.00;99.90
20364;DHT22;10340;53.664;9.908;2023-04-01T07:25:18;7.00;99.90
20364;DHT22;10340;53.664;9.908;2023-04-01T07:27:49;6.90;99.90
20364;DHT22;10340;53.664;9.908;2023-04-01T07:30:18;7.00;99.90
20364;DHT22;10340;53.664;9.908;2023-04-01T07:32:48;7.00;99.90
20364;DHT22;10340;53.664;9.908;2023-04-01T07:35:24;7.10;99.90
20364;DHT22;10340;53.664;9.908;2023-04-01T07:38:05;7.10;99.90
20364;DHT22;10340;53.664;9.908;2023-04-01T07:40:40;7.00;99.90
20364;DHT22;10340;53.664;9.908;2023-04-01T07:46:12;7.00;99.90
20364;DHT22;10340;53.664;9.908;2023-04-01T07:48:46;7.00;99.90
20364;DHT22;10340;53.664;9.908;2023-04-01T07:51:20;7.00;99.90
20364;DHT22;10340;53.664;9.908;2023-04-01T07:53:51;7.00;99.90
20364;DHT22;10340;53.664;9.908;2023-04-01T07:56:25;7.00;99.90
20364;DHT22;10340;53.664;9.908;2023-04-01T07:59:00;7.00;99.90
20364;DHT22;10340;53.664;9.908;2023-04-01T08:01:35;7.00;99.90
20364;DHT22;10340;53.664;9.908;2023-04-01T08:04:18;7.00;99.90
20364;DHT22;10340;53.664;9.908;2023-04-01T08:06:55;6.70;99.90
20364;DHT22;10340;53.664;9.908;2023-04-01T08:09:32;6.80;99.90
20364;DHT22;10340;53.664;9.908;2023-04-01T08:12:10;6.80;99.90
20364;DHT22;10340;53.664;9.908;2023-04-01T08:14:49;6.80;99.90
20364;DHT22;10340;53.664;9.908;2023-04-01T08:17:20;6.80;99.90
20364;DHT22;10340;53.664;9.908;2023-04-01T08:19:58;6.80;99.90
20364;DHT22;10340;53.664;9.908;2023-04-01T08:22:29;6.80;99.90
20364;DHT22;10340;53.664;9.908;2023-04-01T08:25:00;6.80;99.90
20364;DHT22;10340;53.664;9.908;2023-04-01T08:27:34;6.80;99.90
20364;DHT22;10340;53.664;9.908;2023-04-01T08:30:16;6.80;99.90
20364;DHT22;10340;53.664;9.908;2023-04-01T08:32:48;6.80;99.90
20364;DHT22;10340;53.664;9.908;2023-04-01T08:35:24;6.80;99.90
20364;DHT22;10340;53.664;9.908;2023-04-01T08:37:54;6.80;99.90
20364;DHT22;10340;53.664;9.908;2023-04-01T08:46:25;6.80;99.90
20364;DHT22;10340;53.664;9.908;2023-04-01T08:49:23;6.90;99.90
20364;DHT22;10340;53.664;9.908;2023-04-01T08:52:10;6.80;99.90
20364;DHT22;10340;53.664;9.908;2023-04-01T08:54:49;6.80;99.90
20364;DHT22;10340;53.664;9.908;2023-04-01T08:57:31;6.90;99.90
20364;DHT22;10340;53.664;9.908;2023-04-01T09:00:11;6.90;99.90
20364;DHT22;10340;53.664;9.908;2023-04-01T09:02:55;7.00;99.90
20364;DHT22;10340;53.664;9.908;2023-04-01T09:08:29;7.00;99.90
20364;DHT22;10340;53.664;9.908;2023-04-01T09:11:06;7.10;99.90
20364;DHT22;10340;53.664;9.908;2023-04-01T09:14:04;6.90;99.90
20364;DHT22;10340;53.664;9.908;2023-04-01T09:16:57;7.10;99.90
20364;DHT22;10340;53.664;9.908;2023-04-01T09:19:35;7.20;99.90
20364;DHT22;10340;53.664;9.908;2023-04-01T09:22:17;6.90;99.90
20364;DHT22;10340;53.664;9.908;2023-04-01T09:25:06;7.10;99.90
20364;DHT22;10340;53.664;9.908;2023-04-01T09:27:44;7.10;99.90
20364;DHT22;10340;53.664;9.908;2023-04-01T09:30:35;7.10;99.90
20364;DHT22;10340;53.664;9.908;2023-04-01T09:33:48;7.10;99.90
20364;DHT22;10340;53.664;9.908;2023-04-01T09:36:33;7.20;99.90
20364;DHT22;10340;53.664;9.908;2023-04-01T09:39:18;7.10;99.90
20364;DHT22;10340;53.664;9.908;2023-04-01T09:42:14;7.20;99.90
20364;DHT22;10340;53.664;9.908;2023-04-01T09:44:48;7.20;99.90
20364;DHT22;10340;53.664;9.908;2023-04-01T09:47:29;7.20;99.90
20364;DHT22;10340;53.664;9.908;2023-04-01T09:50:30;7.20;99.90
20364;DHT22;10340;53.664;9.908;2023-04-01T09:53:09;7.20;99.90
20364;DHT22;10340;53.664;9.908;2023-04-01T09:59:24;7.20;99.90
20364;DHT22;10340;53.664;9.908;2023-04-01T10:11:45;7.20;99.90
20364;DHT22;10340;53.664;9.908;2023-04-01T10:14:33;7.20;99.90
20364;DHT22;10340;53.664;9.908;2023-04-01T10:17:32;7.30;99.90
20364;DHT22;10340;53.664;9.908;2023-04-01T10:23:37;7.40;99.90
20364;DHT22;10340;53.664;9.908;2023-04-01T10:26:28;7.50;99.90
20364;DHT22;10340;53.664;9.908;2023-04-01T10:29:24;7.50;99.90
20364;DHT22;10340;53.664;9.908;2023-04-01T10:35:46;7.70;99.90
20364;DHT22;10340;53.664;9.908;2023-04-01T10:38:51;7.70;99.90
20364;DHT22;10340;53.664;9.908;2023-04-01T10:50:45;7.40;99.90
20364;DHT22;10340;53.664;9.908;2023-04-01T10:56:51;7.50;99.90
20364;DHT22;10340;53.664;9.908;2023-04-01T11:09:17;7.60;99.90
20364;DHT22;10340;53.664;9.908;2023-04-01T11:12:33;7.60;99.90
20364;DHT22;10340;53.664;9.908;2023-04-01T11:15:31;7.50;99.90
20364;DHT22;10340;53.664;9.908;2023-04-01T11:22:09;7.40;99.90
20364;DHT22;10340;53.664;9.908;2023-04-01T11:24:58;7.50;99.90
20364;DHT22;10340;53.664;9.908;2023-04-01T11:27:44;7.30;99.90
20364;DHT22;10340;53.664;9.908;2023-04-01T11:30:27;7.40;99.90
20364;DHT22;10340;53.664;9.908;2023-04-01T11:33:02;7.20;99.90
20364;DHT22;10340;53.664;9.908;2023-04-01T11:38:49;7.20;99.90
20364;DHT22;10340;53.664;9.908;2023-04-01T11:41:26;7.30;99.90
20364;DHT22;10340;53.664;9.908;2023-04-01T11:47:04;7.20;99.90
20364;DHT22;10340;53.664;9.908;2023-04-01T11:49:46;7.20;99.90
20364;DHT22;10340;53.664;9.908;2023-04-01T11:52:25;7.30;99.90
20364;DHT22;10340;53.664;9.908;2023-04-01T11:55:19;7.20;99.90
20364;DHT22;10340;53.664;9.908;2023-04-01T11:58:14;7.20;99.90
20364;DHT22;10340;53.664;9.908;2023-04-01T12:00:59;7.20;99.90
20364;DHT22;10340;53.664;9.908;2023-04-01T12:04:00;7.30;99.90
20364;DHT22;10340;53.664;9.908;2023-04-01T12:06:36;7.40;99.90
20364;DHT22;10340;53.664;9.908;2023-04-01T12:09:14;7.30;99.90
20364;DHT22;10340;53.664;9.908;2023-04-01T12:11:51;7.30;99.90
20364;DHT22;10340;53.664;9.908;2023-04-01T12:14:32;7.30;99.90
20364;DHT22;10340;53.664;9.908;2023-04-01T12:17:08;7.20;99.90
20364;DHT22;10340;53.664;9.908;2023-04-01T12:19:43;7.20;99.90
20364;DHT22;10340;53.664;9.908;2023-04-01T12:22:27;7.10;99.90
20364;DHT22;10340;53.664;9.908;2023-04-01T12:25:04;7.20;99.90
20364;DHT22;10340;53.664;9.908;2023-04-01T12:27:50;7.10;99.90
20364;DHT22;10340;53.664;9.908;2023-04-01T12:30:32;7.10;99.90
20364;DHT22;10340;53.664;9.908;2023-04-01T12:33:20;7.10;99.90
20364;DHT22;10340;53.664;9.908;2023-04-01T12:38:17;6.90;99.90
20364;DHT22;10340;53.664;9.908;2023-04-01T12:41:06;6.90;99.90
20364;DHT22;10340;53.664;9.908;2023-04-01T12:46:48;6.80;99.90
20364;DHT22;10340;53.664;9.908;2023-04-01T12:49:39;6.70;99.90
20364;DHT22;10340;53.664;9.908;2023-04-01T12:52:12;6.70;99.90
20364;DHT22;10340;53.664;9.908;2023-04-01T12:58:14;6.80;99.90
20364;DHT22;10340;53.664;9.908;2023-04-01T13:01:00;6.70;99.90
20364;DHT22;10340;53.664;9.908;2023-04-01T13:03:41;6.70;99.90
20364;DHT22;10340;53.664;9.908;2023-04-01T13:06:27;6.70;99.90
20364;DHT22;10340;53.664;9.908;2023-04-01T13:09:07;6.70;99.90
20364;DHT22;10340;53.664;9.908;2023-04-01T13:11:55;6.70;99.90
20364;DHT22;10340;53.664;9.908;2023-04-01T13:14:44;6.70;99.90
20364;DHT22;10340;53.664;9.908;2023-04-01T13:17:40;6.80;99.90
20364;DHT22;10340;53.664;9.908;2023-04-01T13:20:16;6.70;99.90
20364;DHT22;10340;53.664;9.908;2023-04-01T13:22:56;6.60;99.90
20364;DHT22;10340;53.664;9.908;2023-04-01T13:25:31;6.50;99.90
20364;DHT22;10340;53.664;9.908;2023-04-01T13:28:09;6.50;99.90
20364;DHT22;10340;53.664;9.908;2023-04-01T13:30:44;6.50;99.90
20364;DHT22;10340;53.664;9.908;2023-04-01T13:33:19;6.50;99.90
20364;DHT22;10340;53.664;9.908;2023-04-01T13:36:00;6.50;99.90
20364;DHT22;10340;53.664;9.908;2023-04-01T13:41:43;6.50;99.90
20364;DHT22;10340;53.664;9.908;2023-04-01T13:44:21;6.50;99.90
20364;DHT22;10340;53.664;9.908;2023-04-01T13:47:13;6.50;99.90
20364;DHT22;10340;53.664;9.908;2023-04-01T13:50:01;6.50;99.90
20364;DHT22;10340;53.664;9.908;2023-04-01T13:52:51;6.50;99.90
20364;DHT22;10340;53.664;9.908;2023-04-01T13:55:30;6.60;99.90
20364;DHT22;10340;53.664;9.908;2023-04-01T13:58:20;6.60;99.90
20364;DHT22;10340;53.664;9.908;2023-04-01T14:01:04;6.60;99.90
20364;DHT22;10340;53.664;9.908;2023-04-01T14:04:03;6.60;99.90
20364;DHT22;10340;53.664;9.908;2023-04-01T14:06:48;6.60;99.90
20364;DHT22;10340;53.664;9.908;2023-04-01T14:09:40;6.60;99.90
20364;DHT22;10340;53.664;9.908;2023-04-01T14:12:18;6.60;99.90
20364;DHT22;10340;53.664;9.908;2023-04-01T14:15:00;6.60;99.90
20364;DHT22;10340;53.664;9.908;2023-04-01T14:17:43;6.50;99.90
20364;DHT22;10340;53.664;9.908;2023-04-01T14:20:22;6.50;99.90
20364;DHT22;10340;53.664;9.908;2023-04-01T14:23:05;6.50;99.90
20364;DHT22;10340;53.664;9.908;2023-04-01T14:25:54;6.50;99.90
20364;DHT22;10340;53.664;9.908;2023-04-01T14:28:31;6.50;99.90
20364;DHT22;10340;53.664;9.908;2023-04-01T14:31:23;6.60;99.90
20364;DHT22;10340;53.664;9.908;2023-04-01T14:34:01;6.50;99.90
20364;DHT22;10340;53.664;9.908;2023-04-01T14:36:45;6.40;99.90
20364;DHT22;10340;53.664;9.908;2023-04-01T14:39:55;6.40;99.90
20364;DHT22;10340;53.664;9.908;2023-04-01T14:42:54;6.30;99.90
20364;DHT22;10340;53.664;9.908;2023-04-01T14:45:41;6.30;99.90
20364;DHT22;10340;53.664;9.908;2023-04-01T14:48:21;6.30;99.90
20364;DHT22;10340;53.664;9.908;2023-04-01T14:50:54;6.30;99.90
20364;DHT22;10340;53.664;9.908;2023-04-01T14:53:28;6.20;99.90
20364;DHT22;10340;53.664;9.908;2023-04-01T14:55:57;6.20;99.90
20364;DHT22;10340;53.664;9.908;2023-04-01T14:58:27;6.20;99.90
20364;DHT22;10340;53.664;9.908;2023-04-01T15:01:11;6.20;99.90
20364;DHT22;10340;53.664;9.908;2023-04-01T15:03:52;6.20;99.90
20364;DHT22;10340;53.664;9.908;2023-04-01T15:06:55;6.20;99.90
20364;DHT22;10340;53.664;9.908;2023-04-01T15:09:28;6.20;99.90
20364;DHT22;10340;53.664;9.908;2023-04-01T15:12:11;6.20;99.90
20364;DHT22;10340;53.664;9.908;2023-04-01T15:14:53;6.30;99.90
20364;DHT22;10340;53.664;9.908;2023-04-01T15:17:37;6.20;99.90
20364;DHT22;10340;53.664;9.908;2023-04-01T15:20:29;6.20;99.90
20364;DHT22;10340;53.664;9.908;2023-04-01T15:23:11;6.20;99.90
20364;DHT22;10340;53.664;9.908;2023-04-01T15:25:54;6.20;99.90
20364;DHT22;10340;53.664;9.908;2023-04-01T15:28:32;6.10;99.90
20364;DHT22;10340;53.664;9.908;2023-04-01T15:31:09;6.10;99.90
20364;DHT22;10340;53.664;9.908;2023-04-01T15:34:02;6.10;99.90
20364;DHT22;10340;53.664;9.908;2023-04-01T15:36:39;6.00;99.90
20364;DHT22;10340;53.664;9.908;2023-04-01T15:39:13;6.10;99.90
20364;DHT22;10340;53.664;9.908;2023-04-01T15:41:50;6.10;99.90
20364;DHT22;10340;53.664;9.908;2023-04-01T15:44:42;6.10;99.90
20364;DHT22;10340;53.664;9.908;2023-04-01T15:47:37;6.00;99.90
20364;DHT22;10340;53.664;9.908;2023-04-01T15:53:50;6.00;99.90
20364;DHT22;10340;53.664;9.908;2023-04-01T15:56:28;6.00;99.90
20364;DHT22;10340;53.664;9.908;2023-04-01T15:59:06;5.90;99.90
20364;DHT22;10340;53.664;9.908;2023-04-01T16:01:44;5.90;99.90
20364;DHT22;10340;53.664;9.908;2023-04-01T16:07:11;5.90;99.90
20364;DHT22;10340;53.664;9.908;2023-04-01T16:09:56;5.80;99.90
20364;DHT22;10340;53.664;9.908;2023-04-01T16:12:37;5.80;99.90
20364;DHT22;10340;53.664;9.908;2023-04-01T16:15:15;5.80;99.90
20364;DHT22;10340;53.664;9.908;2023-04-01T16:20:46;5.60;99.90
20364;DHT22;10340;53.664;9.908;2023-04-01T16:23:22;5.60;99.90
20364;DHT22;10340;53.664;9.908;2023-04-01T16:25:54;5.50;99.90
20364;DHT22;10340;53.664;9.908;2023-04-01T16:28:28;5.40;99.90
20364;DHT22;10340;53.664;9.908;2023-04-01T16:31:02;5.40;99.90
20364;DHT22;10340;53.664;9.908;2023-04-01T16:33:37;5.30;99.90
20364;DHT22;10340;53.664;9.908;2023-04-01T16:36:10;5.30;99.90
20364;DHT22;10340;53.664;9.908;2023-04-01T16:38:43;5.30;99.90
20364;DHT22;10340;53.664;9.908;2023-04-01T16:41:16;5.30;99.90
20364;DHT22;10340;53.664;9.908;2023-04-01T16:43:48;5.50;99.90
20364;DHT22;10340;53.664;9.908;2023-04-01T16:46:33;5.30;99.90
20364;DHT22;10340;53.664;9.908;2023-04-01T16:49:29;5.30;99.90
20364;DHT22;10340;53.664;9.908;2023-04-01T16:52:13;5.30;99.90
20364;DHT22;10340;53.664;9.908;2023-04-01T16:54:45;5.20;99.90
20364;DHT22;10340;53.664;9.908;2023-04-01T16:57:25;5.20;99.90
20364;DHT22;10340;53.664;9.908;2023-04-01T16:59:58;5.10;99.90
20364;DHT22;10340;53.664;9.908;2023-04-01T17:02:31;5.10;99.90
20364;DHT22;10340;53.664;9.908;2023-04-01T17:05:03;5.20;99.90
20364;DHT22;10340;53.664;9.908;2023-04-01T17:07:41;5.10;99.90
20364;DHT22;10340;53.664;9.908;2023-04-01T17:10:32;5.10;99.90
20364;DHT22;10340;53.664;9.908;2023-04-01T17:13:18;5.10;99.90
20364;DHT22;10340;53.664;9.908;2023-04-01T17:16:01;5.10;99.90
20364;DHT22;10340;53.664;9.908;2023-04-01T17:18:38;5.00;99.90
20364;DHT22;10340;53.664;9.908;2023-04-01T17:21:09;5.10;99.90
20364;DHT22;10340;53.664;9.908;2023-04-01T17:23:41;5.10;99.90
20364;DHT22;10340;53.664;9.908;2023-04-01T17:26:24;5.10;99.90
20364;DHT22;10340;53.664;9.908;2023-04-01T17:28:58;5.10;99.90
20364;DHT22;10340;53.664;9.908;2023-04-01T17:31:50;5.10;99.90
20364;DHT22;10340;53.664;9.908;2023-04-01T17:34:32;5.00;99.90
20364;DHT22;10340;53.664;9.908;2023-04-01T17:37:13;5.00;99.90
20364;DHT22;10340;53.664;9.908;2023-04-01T17:39:54;5.00;99.90
20364;DHT22;10340;53.664;9.908;2023-04-01T17:42:35;5.00;99.90
20364;DHT22;10340;53.664;9.908;2023-04-01T17:45:11;5.10;99.90
20364;DHT22;10340;53.664;9.908;2023-04-01T17:47:55;5.10;99.90
20364;DHT22;10340;53.664;9.908;2023-04-01T17:50:24;5.10;99.90
20364;DHT22;10340;53.664;9.908;2023-04-01T17:53:12;5.00;99.90
20364;DHT22;10340;53.664;9.908;2023-04-01T17:55:50;4.90;99.90
20364;DHT22;10340;53.664;9.908;2023-04-01T17:58:22;4.90;99.90
20364;DHT22;10340;53.664;9.908;2023-04-01T18:01:13;4.80;99.90
20364;DHT22;10340;53.664;9.908;2023-04-01T18:04:23;4.80;99.90
20364;DHT22;10340;53.664;9.908;2023-04-01T18:07:04;4.70;99.90
20364;DHT22;10340;53.664;9.908;2023-04-01T18:09:44;4.70;99.90
20364;DHT22;10340;53.664;9.908;2023-04-01T18:12:21;4.70;99.90
20364;DHT22;10340;53.664;9.908;2023-04-01T18:15:06;4.60;99.90
20364;DHT22;10340;53.664;9.908;2023-04-01T18:17:43;4.60;99.90
20364;DHT22;10340;53.664;9.908;2023-04-01T18:20:32;4.70;99.90
20364;DHT22;10340;53.664;9.908;2023-04-01T18:23:04;4.60;99.90
20364;DHT22;10340;53.664;9.908;2023-04-01T18:25:41;4.60;99.90
20364;DHT22;10340;53.664;9.908;2023-04-01T18:28:19;4.60;99.90
20364;DHT22;10340;53.664;9.908;2023-04-01T18:30:53;4.60;99.90
20364;DHT22;10340;53.664;9.908;2023-04-01T18:33:25;4.50;99.90